Time;durP1;ratioP1;P1;durP2;ratioP2;P2;SDS_P1;SDS_P2;PMS_P1;PMS_P2;Temp;Humidity;BMP_temperature;BMP_pressure;BME280_temperature;BME280_humidity;BME280_pressure;Samples;Min_cycle;Max_cycle;Signal;HPM_P1;HPM_P2
2021/09/28 00:02:19;;;;;;;10.73;3.63;;;12.00;99.90;;;;;;6308725;22;20015;-81
2021/09/28 00:04:47;;;;;;;13.25;2.83;;;12.00;99.90;;;;;;6333260;22;20019;-81
2021/09/28 00:07:16;;;;;;;14.43;2.97;;;12.00;99.90;;;;;;6327046;22;20006;-81
2021/09/28 00:09:44;;;;;;;11.50;3.45;;;12.00;99.90;;;;;;6327226;22;20033;-85
2021/09/28 00:12:15;;;;;;;14.13;4.75;;;12.00;99.90;;;;;;6325627;22;20019;-82
2021/09/28 00:14:43;;;;;;;16.40;3.17;;;12.00;99.90;;;;;;6324934;22;20007;-82
2021/09/28 00:17:13;;;;;;;11.68;3.08;;;12.10;99.90;;;;;;6294059;22;20027;-82
2021/09/28 00:19:42;;;;;;;15.70;2.97;;;12.00;99.90;;;;;;6333520;22;20025;-84
2021/09/28 00:22:10;;;;;;;14.35;3.88;;;12.10;99.90;;;;;;6335655;22;20026;-86
2021/09/28 00:25:08;;;;;;;19.50;3.25;;;12.10;99.90;;;;;;6352300;22;20069;-85
2021/09/28 00:27:36;;;;;;;12.88;2.70;;;12.10;99.90;;;;;;6332867;22;20015;-82
2021/09/28 00:30:06;;;;;;;11.60;3.45;;;12.10;99.90;;;;;;6297393;22;20017;-82
2021/09/28 00:32:34;;;;;;;15.32;2.80;;;12.10;99.90;;;;;;6336423;22;20022;-81
2021/09/28 00:35:03;;;;;;;9.00;5.65;;;12.10;99.90;;;;;;6334332;22;20037;-82
2021/09/28 00:37:31;;;;;;;7.43;2.17;;;12.10;99.90;;;;;;6357562;22;20003;-84
2021/09/28 00:39:59;;;;;;;11.40;2.70;;;12.10;99.90;;;;;;6327322;22;20021;-85
2021/09/28 00:42:32;;;;;;;14.10;3.00;;;12.10;99.90;;;;;;6332619;22;20278;-83
2021/09/28 00:45:00;;;;;;;8.35;3.10;;;12.10;99.90;;;;;;6323832;22;20068;-82
2021/09/28 00:47:30;;;;;;;10.07;3.08;;;12.10;99.90;;;;;;6323156;22;20025;-83
2021/09/28 00:50:02;;;;;;;16.25;2.70;;;12.10;99.90;;;;;;6355515;22;20025;-84
2021/09/28 00:52:31;;;;;;;13.60;2.22;;;12.00;99.90;;;;;;6294658;22;20014;-83
2021/09/28 00:54:59;;;;;;;15.43;3.38;;;12.10;99.90;;;;;;6331815;22;20025;-84
2021/09/28 00:57:28;;;;;;;5.85;2.15;;;12.00;99.90;;;;;;6296477;22;20026;-82
2021/09/28 00:59:57;;;;;;;11.65;2.28;;;12.00;99.90;;;;;;6287913;22;20020;-81
2021/09/28 01:02:25;;;;;;;7.07;2.95;;;12.00;99.90;;;;;;6294267;22;20015;-81
2021/09/28 01:04:54;;;;;;;19.05;3.03;;;12.00;99.90;;;;;;6300872;22;20022;-84
2021/09/28 01:07:22;;;;;;;13.57;2.30;;;12.00;99.90;;;;;;6260776;22;20020;-87
2021/09/28 01:09:50;;;;;;;13.52;2.35;;;12.10;99.90;;;;;;6300921;22;20019;-87
2021/09/28 01:12:19;;;;;;;14.85;2.80;;;12.00;99.90;;;;;;6300173;22;20015;-87
2021/09/28 01:14:49;;;;;;;16.90;2.97;;;12.00;99.90;;;;;;6239552;22;20020;-87
2021/09/28 01:17:18;;;;;;;12.15;3.70;;;12.00;99.90;;;;;;6289269;22;20016;-83
2021/09/28 01:19:46;;;;;;;11.77;2.80;;;12.00;99.90;;;;;;6290611;22;20015;-90
2021/09/28 01:22:16;;;;;;;13.93;3.42;;;12.00;99.90;;;;;;6303353;22;20003;-85
2021/09/28 01:24:47;;;;;;;19.40;4.57;;;12.00;99.90;;;;;;6262028;22;20020;-85
2021/09/28 01:27:17;;;;;;;15.60;2.83;;;12.00;99.90;;;;;;6238031;22;20025;-87
2021/09/28 01:29:46;;;;;;;7.00;2.33;;;12.00;99.90;;;;;;6300013;22;20026;-90
2021/09/28 01:32:15;;;;;;;19.58;3.13;;;12.00;99.90;;;;;;6291145;22;20007;-87
2021/09/28 01:34:43;;;;;;;14.57;4.10;;;12.00;99.90;;;;;;6275818;22;20016;-86
2021/09/28 01:37:12;;;;;;;18.23;4.38;;;11.90;99.90;;;;;;6272544;22;20026;-85
2021/09/28 01:39:45;;;;;;;11.60;4.07;;;11.90;99.90;;;;;;6258583;22;20023;-86
2021/09/28 01:42:17;;;;;;;11.70;3.22;;;11.90;99.90;;;;;;6238381;22;20022;-85
2021/09/28 01:44:46;;;;;;;18.95;3.58;;;11.90;99.90;;;;;;6265565;22;20023;-89
2021/09/28 01:47:15;;;;;;;10.07;3.75;;;11.90;99.90;;;;;;6213059;22;20028;-84
2021/09/28 01:49:44;;;;;;;10.73;3.65;;;11.90;99.90;;;;;;6286984;22;20020;-85
2021/09/28 01:52:12;;;;;;;14.98;4.28;;;11.90;99.90;;;;;;6287978;22;20011;-84
2021/09/28 01:54:40;;;;;;;10.52;3.55;;;11.80;99.90;;;;;;6299940;22;20432;-83
2021/09/28 01:57:08;;;;;;;11.80;5.30;;;11.80;99.90;;;;;;6328192;22;20018;-83
2021/09/28 01:59:38;;;;;;;15.98;4.70;;;11.80;99.90;;;;;;6300177;22;20019;-83
2021/09/28 02:02:09;;;;;;;13.05;2.85;;;11.70;99.90;;;;;;6298760;22;20026;-83
2021/09/28 02:04:38;;;;;;;16.58;3.17;;;11.70;99.90;;;;;;6273656;22;20023;-82
2021/09/28 02:07:06;;;;;;;12.70;3.22;;;11.70;99.90;;;;;;6362992;22;20022;-85
2021/09/28 02:09:34;;;;;;;24.38;5.35;;;10.60;99.90;;;;;;6325683;22;20011;-82
2021/09/28 02:12:07;;;;;;;13.10;4.57;;;11.70;99.90;;;;;;6323377;22;20019;-85
2021/09/28 02:14:36;;;;;;;9.77;2.40;;;11.70;99.90;;;;;;6326492;22;20494;-84
2021/09/28 02:17:04;;;;;;;5.90;2.13;;;11.70;99.90;;;;;;6335732;22;20010;-83
2021/09/28 02:19:32;;;;;;;11.52;2.92;;;11.70;99.90;;;;;;6334887;22;20027;-84
2021/09/28 02:22:03;;;;;;;10.02;3.40;;;11.70;99.90;;;;;;6334870;22;20021;-82
2021/09/28 02:24:32;;;;;;;11.82;2.53;;;11.70;99.90;;;;;;6325968;22;20033;-81
2021/09/28 02:27:00;;;;;;;10.68;3.00;;;11.70;99.90;;;;;;6322604;22;20010;-82
2021/09/28 02:29:33;;;;;;;9.90;3.00;;;11.60;99.90;;;;;;6296753;22;20025;-82
2021/09/28 02:32:02;;;;;;;10.63;3.63;;;11.60;99.90;;;;;;6297686;22;20019;-85
2021/09/28 02:34:30;;;;;;;16.67;4.60;;;11.70;99.90;;;;;;6309123;22;20017;-84
2021/09/28 02:36:59;;;;;;;16.48;3.15;;;11.70;99.90;;;;;;6334342;22;20019;-83
2021/09/28 02:39:27;;;;;;;29.08;3.50;;;11.70;99.90;;;;;;6325112;22;20019;-85
2021/09/28 02:41:55;;;;;;;9.38;2.58;;;11.70;99.90;;;;;;6297315;22;20365;-84
2021/09/28 02:44:23;;;;;;;7.60;2.38;;;11.70;99.90;;;;;;6323322;22;20015;-83
2021/09/28 02:46:52;;;;;;;12.75;2.78;;;11.60;99.90;;;;;;6363214;22;20021;-84
2021/09/28 02:49:20;;;;;;;10.20;3.10;;;11.70;99.90;;;;;;6327845;22;20015;-86
2021/09/28 02:51:49;;;;;;;6.63;2.33;;;11.70;99.90;;;;;;6325489;22;20025;-84
2021/09/28 02:54:18;;;;;;;14.07;2.80;;;11.70;99.90;;;;;;6354546;22;20041;-86
2021/09/28 02:56:46;;;;;;;7.15;2.85;;;11.70;99.90;;;;;;6353688;22;20030;-83
2021/09/28 02:59:14;;;;;;;20.70;6.50;;;11.70;99.90;;;;;;6322718;22;20025;-82
2021/09/28 03:01:42;;;;;;;24.75;3.53;;;11.70;99.90;;;;;;6361521;22;20018;-81
2021/09/28 03:04:11;;;;;;;16.52;2.88;;;11.70;99.90;;;;;;6334431;22;20015;-83
2021/09/28 03:06:38;;;;;;;18.40;4.57;;;11.70;99.90;;;;;;6321417;22;20023;-82
2021/09/28 03:09:07;;;;;;;12.73;3.03;;;11.70;99.90;;;;;;6321518;22;20462;-82
2021/09/28 03:11:38;;;;;;;13.52;2.55;;;11.70;99.90;;;;;;6324703;22;20018;-82
2021/09/28 03:14:06;;;;;;;8.75;3.38;;;11.70;99.90;;;;;;6360383;22;20021;-83
2021/09/28 03:16:35;;;;;;;8.30;2.72;;;11.70;99.90;;;;;;6297001;22;20011;-84
2021/09/28 03:19:03;;;;;;;16.15;3.17;;;11.70;99.90;;;;;;6334188;22;20037;-82
2021/09/28 03:21:31;;;;;;;19.27;4.95;;;11.70;99.90;;;;;;6309212;22;20025;-82
2021/09/28 03:24:03;;;;;;;14.75;4.68;;;11.70;99.90;;;;;;6299265;22;20017;-82
2021/09/28 03:26:32;;;;;;;17.58;3.25;;;11.70;99.90;;;;;;6356181;22;20180;-82
2021/09/28 03:29:00;;;;;;;17.25;2.85;;;11.70;99.90;;;;;;6324406;22;20026;-82
2021/09/28 03:31:28;;;;;;;7.60;3.40;;;11.80;99.90;;;;;;6298849;22;20025;-83
2021/09/28 03:33:56;;;;;;;10.40;2.63;;;11.70;99.90;;;;;;6298298;22;20463;-83
2021/09/28 03:36:25;;;;;;;16.77;2.95;;;11.70;99.90;;;;;;6337135;22;20017;-82
2021/09/28 03:38:53;;;;;;;8.07;2.75;;;11.70;99.90;;;;;;6298961;22;20015;-82
2021/09/28 03:41:22;;;;;;;16.60;2.80;;;11.80;99.90;;;;;;6354450;22;20011;-84
2021/09/28 03:43:50;;;;;;;8.18;3.92;;;11.80;99.90;;;;;;6352961;22;20021;-81
2021/09/28 03:46:19;;;;;;;11.57;2.95;;;11.90;99.90;;;;;;6328385;22;20029;-81
2021/09/28 03:48:48;;;;;;;11.52;3.67;;;11.80;99.90;;;;;;6322834;22;20014;-82
2021/09/28 03:51:16;;;;;;;19.75;3.38;;;11.90;99.90;;;;;;6324093;22;20019;-82
2021/09/28 03:53:45;;;;;;;13.07;3.33;;;11.90;99.90;;;;;;6296627;22;20021;-84
2021/09/28 03:56:14;;;;;;;17.90;4.72;;;12.00;99.90;;;;;;6332699;22;20018;-83
2021/09/28 03:58:43;;;;;;;12.88;3.20;;;12.00;99.90;;;;;;6332435;22;20033;-83
2021/09/28 04:01:13;;;;;;;24.05;4.93;;;12.00;99.90;;;;;;6322595;22;20018;-81
2021/09/28 04:03:42;;;;;;;11.55;2.70;;;12.00;99.90;;;;;;6321953;22;20011;-80
2021/09/28 04:06:10;;;;;;;16.70;4.18;;;12.00;99.90;;;;;;6297106;22;20417;-83
2021/09/28 04:08:39;;;;;;;10.18;2.88;;;12.00;99.90;;;;;;6322540;22;20032;-84
2021/09/28 04:11:07;;;;;;;14.75;3.55;;;12.00;99.90;;;;;;6295513;22;20023;-82
2021/09/28 04:13:35;;;;;;;15.65;3.42;;;12.00;99.90;;;;;;6300616;22;20021;-84
2021/09/28 04:16:05;;;;;;;25.05;4.60;;;12.00;99.90;;;;;;6323678;22;20478;-84
2021/09/28 04:18:33;;;;;;;16.88;3.40;;;12.00;99.90;;;;;;6362415;22;20042;-83
2021/09/28 04:21:02;;;;;;;9.90;3.33;;;12.00;99.90;;;;;;6321591;22;20018;-83
2021/09/28 04:23:30;;;;;;;13.48;3.90;;;11.90;99.90;;;;;;6300475;22;20010;-81
2021/09/28 04:25:59;;;;;;;14.98;2.40;;;11.90;99.90;;;;;;6299223;22;20019;-83
2021/09/28 04:28:26;;;;;;;15.25;2.70;;;11.90;99.90;;;;;;6335442;22;20025;-83
2021/09/28 04:30:56;;;;;;;18.67;4.43;;;11.70;99.90;;;;;;6336432;22;20061;-83
2021/09/28 04:33:26;;;;;;;11.90;2.40;;;12.00;99.90;;;;;;6301202;22;20011;-85
2021/09/28 04:35:54;;;;;;;15.93;3.78;;;12.00;99.90;;;;;;6337821;22;20025;-84
2021/09/28 04:38:23;;;;;;;12.85;4.13;;;12.00;99.90;;;;;;6329147;22;20025;-83
2021/09/28 04:40:51;;;;;;;23.17;3.55;;;12.00;99.90;;;;;;6365652;22;20025;-82
2021/09/28 04:43:20;;;;;;;15.27;2.42;;;12.00;99.90;;;;;;6298814;22;20025;-83
2021/09/28 04:45:48;;;;;;;15.80;2.88;;;12.00;99.90;;;;;;6327939;22;20018;-84
2021/09/28 04:48:16;;;;;;;8.70;3.30;;;12.10;99.90;;;;;;6323392;22;20017;-84
2021/09/28 04:50:46;;;;;;;14.45;2.60;;;12.00;99.90;;;;;;6322887;22;20018;-84
2021/09/28 04:53:15;;;;;;;19.47;4.07;;;12.00;99.90;;;;;;6298196;22;20021;-84
2021/09/28 04:55:43;;;;;;;18.38;3.90;;;12.00;99.90;;;;;;6333780;22;20019;-83
2021/09/28 04:58:12;;;;;;;20.05;3.58;;;12.00;99.90;;;;;;6290906;22;20026;-82
2021/09/28 05:00:40;;;;;;;10.82;3.22;;;12.00;99.90;;;;;;6295878;22;20022;-84
2021/09/28 05:03:08;;;;;;;14.70;2.65;;;11.90;99.90;;;;;;6298594;22;20030;-85
2021/09/28 05:05:37;;;;;;;12.68;3.42;;;11.90;99.90;;;;;;6261830;22;20016;-85
2021/09/28 05:08:05;;;;;;;14.38;4.40;;;11.90;99.90;;;;;;6286223;22;20020;-84
2021/09/28 05:10:33;;;;;;;13.10;3.83;;;11.90;99.90;;;;;;6285707;22;20021;-83
2021/09/28 05:13:03;;;;;;;13.68;2.97;;;11.90;99.90;;;;;;6261753;22;20011;-84
2021/09/28 05:15:32;;;;;;;16.45;3.20;;;11.80;99.90;;;;;;6272544;22;20024;-85
2021/09/28 05:18:00;;;;;;;13.63;2.72;;;11.80;99.90;;;;;;6298152;22;20028;-83
2021/09/28 05:20:30;;;;;;;14.73;4.65;;;11.80;99.90;;;;;;6286243;22;20020;-82
2021/09/28 05:23:02;;;;;;;11.02;2.83;;;10.80;99.90;;;;;;6290860;22;20024;-81
2021/09/28 05:25:30;;;;;;;14.95;3.35;;;11.70;99.90;;;;;;6298179;22;20015;-82
2021/09/28 05:28:08;;;;;;;16.67;3.50;;;11.70;99.90;;;;;;6297999;22;20042;-82
2021/09/28 05:30:36;;;;;;;7.03;3.15;;;11.70;99.90;;;;;;6235427;22;20015;-81
2021/09/28 05:33:08;;;;;;;12.10;2.97;;;11.70;99.90;;;;;;6299876;22;20026;-83
2021/09/28 05:35:37;;;;;;;19.30;5.43;;;11.70;99.90;;;;;;6299169;22;20016;-83
2021/09/28 05:38:06;;;;;;;15.75;3.40;;;12.30;99.90;;;;;;6260999;22;20018;-85
2021/09/28 05:40:34;;;;;;;11.55;3.58;;;11.70;99.90;;;;;;6298996;22;20016;-82
2021/09/28 05:43:02;;;;;;;11.13;3.25;;;11.70;99.90;;;;;;6299339;22;20024;-82
2021/09/28 05:45:31;;;;;;;15.07;2.75;;;11.70;99.90;;;;;;6273056;22;20026;-82
2021/09/28 05:48:00;;;;;;;11.05;2.20;;;11.70;99.90;;;;;;6262297;22;20020;-83
2021/09/28 05:50:29;;;;;;;14.00;3.50;;;11.70;99.90;;;;;;6259664;22;20026;-85
2021/09/28 05:52:57;;;;;;;9.50;3.00;;;11.70;99.90;;;;;;6272825;22;20105;-83
2021/09/28 05:55:27;;;;;;;19.67;4.35;;;11.70;99.90;;;;;;6291082;22;20022;-82
2021/09/28 05:57:55;;;;;;;8.70;2.70;;;11.70;99.90;;;;;;6285030;22;20028;-84
2021/09/28 06:00:23;;;;;;;15.32;2.90;;;11.80;99.90;;;;;;6262923;22;20015;-85
2021/09/28 06:02:54;;;;;;;11.93;2.75;;;11.80;99.90;;;;;;6287786;22;20029;-82
2021/09/28 06:05:24;;;;;;;16.60;4.25;;;11.80;99.90;;;;;;6263155;22;20356;-88
2021/09/28 06:07:53;;;;;;;18.48;2.92;;;11.80;99.90;;;;;;6262128;22;20019;-89
2021/09/28 06:10:22;;;;;;;14.80;4.38;;;11.90;99.90;;;;;;6285872;22;20026;-85
2021/09/28 06:12:51;;;;;;;9.52;2.65;;;11.20;99.90;;;;;;6237044;22;20024;-83
2021/09/28 06:15:19;;;;;;;14.82;2.95;;;11.90;99.90;;;;;;6302013;22;20016;-83
2021/09/28 06:17:47;;;;;;;14.68;3.55;;;12.00;99.90;;;;;;6291449;22;20024;-83
2021/09/28 06:20:15;;;;;;;9.98;3.03;;;12.00;99.90;;;;;;6261240;22;20015;-84
2021/09/28 06:22:43;;;;;;;17.13;4.32;;;12.00;99.90;;;;;;6239324;22;20042;-83
2021/09/28 06:25:12;;;;;;;13.80;3.75;;;12.10;99.90;;;;;;6264809;22;20844;-83
2021/09/28 06:27:44;;;;;;;;;;;12.10;99.90;;;;;;6295069;22;20004;-86
2021/09/28 06:30:15;;;;;;;19.15;3.17;;;12.20;99.90;;;;;;6292146;22;19926;-84
2021/09/28 06:32:45;;;;;;;15.05;4.22;;;12.20;99.90;;;;;;6263885;22;20030;-82
2021/09/28 06:35:17;;;;;;;17.58;3.70;;;12.20;99.90;;;;;;6289786;22;20372;-84
2021/09/28 06:37:48;;;;;;;11.80;4.20;;;12.30;99.90;;;;;;6261291;22;20038;-83
2021/09/28 06:40:17;;;;;;;15.52;3.42;;;12.30;99.90;;;;;;6296131;22;20038;-85
2021/09/28 06:42:45;;;;;;;12.60;2.97;;;12.30;99.90;;;;;;6290172;22;20026;-85
2021/09/28 06:45:14;;;;;;;15.93;2.80;;;12.40;99.90;;;;;;6259574;22;20476;-88
2021/09/28 06:47:44;;;;;;;12.65;2.75;;;12.40;99.90;;;;;;6298050;22;20019;-85
2021/09/28 06:50:14;;;;;;;15.20;2.80;;;12.40;99.90;;;;;;6291526;22;20018;-89
2021/09/28 06:52:44;;;;;;;25.63;3.63;;;12.50;99.90;;;;;;6237839;22;20019;-83
2021/09/28 06:55:14;;;;;;;13.17;2.77;;;12.50;99.90;;;;;;6262409;22;20151;-83
2021/09/28 06:57:45;;;;;;;14.98;3.03;;;12.50;99.90;;;;;;6236951;22;20022;-87
2021/09/28 07:00:13;;;;;;;15.35;4.47;;;12.60;99.90;;;;;;6285603;22;20717;-80
2021/09/28 07:02:41;;;;;;;17.25;3.35;;;12.60;99.90;;;;;;6297153;22;20015;-87
2021/09/28 07:05:18;;;;;;;10.43;2.63;;;12.80;99.90;;;;;;6272077;22;20031;-87
2021/09/28 07:07:50;;;;;;;9.82;3.15;;;12.40;99.90;;;;;;6289853;22;20026;-85
2021/09/28 07:10:21;;;;;;;16.55;3.30;;;12.70;99.90;;;;;;6282955;22;20011;-87
2021/09/28 07:13:02;;;;;;;20.95;3.85;;;12.80;99.90;;;;;;6261989;22;20030;-84
2021/09/28 07:15:30;;;;;;;19.17;4.50;;;12.80;99.90;;;;;;6260950;22;20509;-84
2021/09/28 07:18:02;;;;;;;10.15;3.08;;;12.90;99.90;;;;;;6259599;22;20028;-78
2021/09/28 07:21:10;;;;;;;8.73;3.28;;;13.00;99.90;;;;;;6285366;22;20024;-88
2021/09/28 07:24:53;;;;;;;16.73;2.30;;;13.10;99.90;;;;;;6182755;23;20079;-87
2021/09/28 07:27:56;;;;;;;19.55;3.28;;;13.30;99.90;;;;;;6203670;23;20017;-86
2021/09/28 07:30:40;;;;;;;17.88;3.03;;;13.30;99.90;;;;;;6175891;23;20135;-90
2021/09/28 07:33:37;;;;;;;13.90;3.50;;;13.40;99.90;;;;;;6169697;23;20021;-85
2021/09/28 07:45:43;;;;;;;;;;;;;;;;;;;;;
2021/09/28 07:49:37;;;;;;;14.75;3.67;;;13.80;99.90;;;;;;6064236;23;20029;-85
2021/09/28 07:56:58;;;;;;;22.35;3.50;;;13.80;99.90;;;;;;6179157;23;20025;-81
2021/09/28 08:01:23;;;;;;;15.13;4.60;;;13.90;99.90;;;;;;6229489;22;20023;-86
2021/09/28 08:04:20;;;;;;;16.50;4.65;;;14.00;99.90;;;;;;6324947;22;20015;-84
2021/09/28 08:08:08;;;;;;;;;;;;;;;;;;;;;
2021/09/28 08:19:39;;;;;;;;;;;;;;;;;;;;;
2021/09/28 08:23:28;;;;;;;6.43;1.75;;;14.60;99.90;;;;;;6317492;22;20470;-81
2021/09/28 08:32:30;;;;;;;5.88;1.65;;;13.70;99.90;;;;;;6241426;22;20034;-84
2021/09/28 08:48:31;;;;;;;;;;;;;;;;;;;;;
2021/09/28 09:03:55;;;;;;;12.23;2.08;;;16.60;99.90;;;;;;6189548;23;20030;-82
2021/09/28 09:06:49;;;;;;;16.35;3.05;;;15.60;99.90;;;;;;6207576;23;20020;-82
2021/09/28 09:09:52;;;;;;;14.57;3.05;;;15.80;99.90;;;;;;6205948;23;20034;-82
2021/09/28 09:13:49;;;;;;;;;;;;;;;;;;;;;
2021/09/28 09:17:29;;;;;;;;;;;;;;;;;;;;;
2021/09/28 09:21:00;;;;;;;10.82;2.47;;;16.10;99.90;;;;;;6211090;22;20008;-86
2021/09/28 09:23:40;;;;;;;18.13;2.90;;;16.20;99.90;;;;;;6304513;22;20025;-82
2021/09/28 09:26:17;;;;;;;20.55;3.42;;;16.20;99.90;;;;;;6365865;22;20014;-80
2021/09/28 09:29:20;;;;;;;18.70;4.45;;;16.20;99.90;;;;;;6394428;22;20029;-83
2021/09/28 09:32:10;;;;;;;9.63;3.40;;;16.20;99.90;;;;;;6366290;22;20010;-82
2021/09/28 09:34:39;;;;;;;13.48;2.88;;;16.10;99.90;;;;;;6354658;22;20018;-83
2021/09/28 09:38:20;;;;;;;10.00;3.53;;;16.10;99.90;;;;;;6331361;22;20010;-83
2021/09/28 09:41:27;;;;;;;9.32;3.38;;;16.20;99.90;;;;;;6330550;22;20018;-84
2021/09/28 09:44:18;;;;;;;17.55;2.83;;;16.10;99.90;;;;;;6328630;22;20018;-83
2021/09/28 09:50:27;;;;;;;16.73;3.35;;;16.10;99.90;;;;;;6325522;22;20018;-87
2021/09/28 09:53:10;;;;;;;15.73;3.00;;;16.00;99.90;;;;;;6322262;22;20011;-84
2021/09/28 09:56:12;;;;;;;10.68;3.42;;;14.60;99.90;;;;;;6300643;22;20015;-80
2021/09/28 09:58:47;;;;;;;15.75;3.70;;;16.00;99.90;;;;;;6258643;22;20038;-80
2021/09/28 10:01:17;;;;;;;18.70;3.30;;;16.10;99.90;;;;;;6295725;22;20012;-80
2021/09/28 10:03:51;;;;;;;15.50;3.33;;;16.10;99.90;;;;;;6286042;22;20026;-82
2021/09/28 10:06:24;;;;;;;12.77;3.05;;;16.10;99.90;;;;;;6289067;22;20026;-84
2021/09/28 10:09:28;;;;;;;11.25;3.17;;;16.20;99.90;;;;;;6258758;22;20049;-84
2021/09/28 10:12:04;;;;;;;12.57;3.67;;;17.60;99.90;;;;;;6296284;22;20177;-83
2021/09/28 10:15:35;;;;;;;20.20;3.38;;;16.20;99.90;;;;;;6284661;22;20030;-81
2021/09/28 10:18:40;;;;;;;21.10;4.70;;;16.30;99.90;;;;;;6267946;22;20020;-81
2021/09/28 10:22:09;;;;;;;16.83;4.18;;;16.10;99.90;;;;;;6280896;22;20016;-82
2021/09/28 10:25:23;;;;;;;15.68;3.30;;;16.20;99.90;;;;;;6234745;22;20204;-82
2021/09/28 10:27:59;;;;;;;13.15;2.90;;;16.40;99.90;;;;;;6255930;22;20024;-83
2021/09/28 10:30:43;;;;;;;16.67;4.57;;;16.50;99.90;;;;;;6269138;22;20023;-83
2021/09/28 10:33:28;;;;;;;14.57;3.22;;;16.70;99.90;;;;;;6287373;22;20023;-81
2021/09/28 10:36:25;;;;;;;19.20;4.60;;;16.80;99.90;;;;;;6217809;22;20016;-89
2021/09/28 10:39:55;;;;;;;13.13;3.22;;;17.60;99.90;;;;;;6288979;22;20033;-89
2021/09/28 10:42:55;;;;;;;13.68;4.50;;;17.00;99.90;;;;;;6219214;22;20026;-82
2021/09/28 10:46:36;;;;;;;26.48;3.85;;;17.10;99.90;;;;;;6295961;22;20022;-84
2021/09/28 10:50:27;;;;;;;16.35;3.90;;;17.40;99.90;;;;;;6189830;23;20027;-85
2021/09/28 10:53:27;;;;;;;13.75;2.97;;;17.40;99.90;;;;;;6172897;23;20366;-81
2021/09/28 11:01:26;;;;;;;15.30;3.33;;;17.60;99.90;;;;;;6140871;23;20036;-86
2021/09/28 11:05:04;;;;;;;16.52;3.33;;;17.60;99.90;;;;;;6043791;23;20033;-83
2021/09/28 11:08:41;;;;;;;;;;;;;;;;;;;;;
2021/09/28 11:17:08;;;;;;;11.38;3.42;;;17.30;99.90;;;;;;5959884;24;20022;-81
2021/09/28 11:19:51;;;;;;;15.63;3.88;;;17.20;99.90;;;;;;5991288;23;20020;-89
2021/09/28 11:23:12;;;;;;;;;;;;;;;;;;;;;
2021/09/28 11:27:29;;;;;;;13.30;2.60;;;17.10;99.90;;;;;;6093923;23;20026;-85
2021/09/28 11:31:14;;;;;;;22.83;4.10;;;17.00;99.90;;;;;;6003651;23;20098;-86
2021/09/28 11:33:52;;;;;;;14.82;3.83;;;17.00;99.90;;;;;;5996839;23;20038;-87
2021/09/28 11:36:40;;;;;;;25.30;5.03;;;17.00;99.90;;;;;;6043283;23;20022;-87
2021/09/28 11:44:39;;;;;;;;;;;;;;;;;;;;;
2021/09/28 11:47:52;;;;;;;;;;;17.00;99.90;;;;;;6265104;22;20024;-84
2021/09/28 11:52:11;;;;;;;;;;;;;;;;;;;;;
2021/09/28 11:55:24;;;;;;;6.85;1.80;;;17.40;99.90;;;;;;6260961;23;20012;-87
2021/09/28 11:58:09;;;;;;;23.00;2.25;;;17.60;99.90;;;;;;6227167;22;20368;-86
2021/09/28 12:00:44;;;;;;;11.15;2.30;;;17.80;99.90;;;;;;6289177;22;20011;-86
2021/09/28 12:04:21;;;;;;;13.10;3.38;;;18.00;99.90;;;;;;6313105;22;20019;-86
2021/09/28 12:10:27;;;;;;;18.25;3.38;;;18.30;99.90;;;;;;6323633;22;20015;-90
2021/09/28 12:13:46;;;;;;;13.40;3.58;;;18.40;99.90;;;;;;6298178;22;20030;-82
2021/09/28 12:17:41;;;;;;;16.40;3.15;;;18.20;99.90;;;;;;6303103;22;20030;-83
2021/09/28 12:20:33;;;;;;;20.02;2.92;;;18.40;99.90;;;;;;6322424;22;20319;-84
2021/09/28 12:26:52;;;;;;;12.95;3.38;;;18.50;99.90;;;;;;6208131;23;20030;-86
2021/09/28 12:33:05;;;;;;;16.17;2.92;;;18.50;99.90;;;;;;6229919;23;20030;-82
2021/09/28 12:39:27;;;;;;;10.20;2.25;;;18.60;99.90;;;;;;6222616;23;20020;-79
2021/09/28 12:42:02;;;;;;;10.05;1.98;;;18.50;99.90;;;;;;6255283;23;20030;-77
2021/09/28 12:44:32;;;;;;;11.32;3.45;;;18.50;99.90;;;;;;6203378;23;20034;-79
2021/09/28 12:47:33;;;;;;;10.52;1.98;;;18.60;99.90;;;;;;6228744;23;20016;-79
2021/09/28 12:50:34;;;;;;;12.30;2.80;;;18.70;99.90;;;;;;6205023;23;20024;-77
2021/09/28 12:53:14;;;;;;;15.35;2.80;;;18.10;99.90;;;;;;6253665;23;20020;-79
2021/09/28 12:55:46;;;;;;;13.93;2.85;;;18.70;99.90;;;;;;6263712;23;20012;-80
2021/09/28 12:58:17;;;;;;;12.73;2.45;;;18.60;99.90;;;;;;6256710;22;20031;-83
2021/09/28 13:00:46;;;;;;;15.73;5.72;;;18.50;99.90;;;;;;6259805;22;20020;-79
2021/09/28 13:03:20;;;;;;;13.88;4.70;;;18.50;99.90;;;;;;6288641;22;20019;-79
2021/09/28 13:05:55;;;;;;;12.60;3.20;;;18.40;99.90;;;;;;6297185;22;20007;-76
2021/09/28 13:08:27;;;;;;;15.50;3.42;;;18.50;99.90;;;;;;6258832;22;20556;-79
2021/09/28 13:10:58;;;;;;;16.20;3.75;;;18.60;99.90;;;;;;6295483;22;20019;-81
2021/09/28 13:13:34;;;;;;;16.17;3.65;;;18.80;99.90;;;;;;6261038;22;20016;-78
2021/09/28 13:16:09;;;;;;;17.75;3.95;;;18.80;99.90;;;;;;6258385;22;20171;-80
2021/09/28 13:18:52;;;;;;;13.10;4.10;;;18.90;99.90;;;;;;6262652;22;20016;-81
2021/09/28 13:21:20;;;;;;;15.73;3.00;;;18.80;99.90;;;;;;6284952;22;20015;-78
2021/09/28 13:23:50;;;;;;;18.13;2.67;;;18.80;99.90;;;;;;6293936;22;20405;-77
2021/09/28 13:26:18;;;;;;;16.80;3.33;;;18.70;99.90;;;;;;6257339;22;20027;-79
2021/09/28 13:28:46;;;;;;;11.40;2.50;;;18.80;99.90;;;;;;6296285;22;20015;-79
2021/09/28 13:31:14;;;;;;;6.43;1.95;;;18.70;99.90;;;;;;6257952;22;20028;-80
2021/09/28 13:33:42;;;;;;;13.50;2.97;;;18.70;99.90;;;;;;6234314;22;20457;-77
2021/09/28 13:36:22;;;;;;;10.13;3.15;;;18.80;99.90;;;;;;6284788;22;20022;-80
2021/09/28 13:38:51;;;;;;;19.17;2.33;;;18.80;99.90;;;;;;6288172;22;20015;-77
2021/09/28 13:41:20;;;;;;;7.57;1.70;;;17.90;99.90;;;;;;6286439;22;20045;-80
2021/09/28 13:43:48;;;;;;;11.57;1.88;;;18.70;99.90;;;;;;6288826;22;20016;-80
2021/09/28 13:46:24;;;;;;;9.50;3.28;;;18.50;99.90;;;;;;6258974;22;20018;-79
2021/09/28 13:48:53;;;;;;;;;;;18.40;99.90;;;;;;6258422;22;20016;-81
2021/09/28 13:51:20;;;;;;;9.25;1.92;;;19.00;99.90;;;;;;6205778;22;19915;-80
2021/09/28 13:53:50;;;;;;;15.18;2.17;;;18.40;99.90;;;;;;6281773;22;20023;-79
2021/09/28 13:56:18;;;;;;;11.82;2.00;;;18.40;99.90;;;;;;6279796;22;20335;-77
2021/09/28 13:59:01;;;;;;;13.15;2.40;;;18.50;99.90;;;;;;6279991;22;20016;-79
2021/09/28 14:01:29;;;;;;;16.00;3.42;;;18.40;99.90;;;;;;6279843;22;20023;-80
2021/09/28 14:03:58;;;;;;;8.63;2.25;;;18.70;99.90;;;;;;6282807;22;20016;-76
2021/09/28 14:06:26;;;;;;;9.02;2.05;;;18.80;99.90;;;;;;6289089;22;20026;-78
2021/09/28 14:08:54;;;;;;;12.65;2.28;;;18.90;99.90;;;;;;6293943;22;20012;-78
2021/09/28 14:11:22;;;;;;;9.93;2.97;;;18.90;99.90;;;;;;6255395;22;20020;-78
2021/09/28 14:13:50;;;;;;;13.90;2.28;;;18.90;99.90;;;;;;6229670;22;20020;-79
2021/09/28 14:16:18;;;;;;;11.77;2.58;;;18.90;99.90;;;;;;6283940;22;20020;-77
2021/09/28 14:18:48;;;;;;;19.40;3.92;;;18.90;99.90;;;;;;6294845;22;20026;-77
2021/09/28 14:21:16;;;;;;;5.13;2.03;;;18.80;99.90;;;;;;6267193;22;20008;-76
2021/09/28 14:23:46;;;;;;;8.88;2.03;;;18.80;99.90;;;;;;6257172;22;20045;-77
2021/09/28 14:26:17;;;;;;;5.78;2.38;;;18.80;99.90;;;;;;6257996;22;20028;-78
2021/09/28 14:29:00;;;;;;;13.55;2.67;;;18.10;99.90;;;;;;6269945;22;20026;-79
2021/09/28 14:31:42;;;;;;;11.38;2.03;;;18.60;99.90;;;;;;6236276;22;20029;-76
2021/09/28 14:34:12;;;;;;;10.95;3.67;;;18.60;99.90;;;;;;6258842;22;20020;-81
2021/09/28 14:36:43;;;;;;;9.55;2.28;;;18.50;99.90;;;;;;6282643;22;20029;-77
2021/09/28 14:39:12;;;;;;;13.48;2.63;;;18.50;99.90;;;;;;6269472;22;20014;-81
2021/09/28 14:41:40;;;;;;;11.23;2.20;;;18.50;99.90;;;;;;6296928;22;20162;-79
2021/09/28 14:44:09;;;;;;;13.95;2.47;;;18.40;99.90;;;;;;6294557;22;20241;-80
2021/09/28 14:46:39;;;;;;;8.60;2.33;;;18.30;99.90;;;;;;6294653;22;20026;-81
2021/09/28 14:49:09;;;;;;;12.30;3.20;;;18.20;99.90;;;;;;6285477;22;20012;-79
2021/09/28 14:51:38;;;;;;;16.42;4.50;;;18.10;99.90;;;;;;6285496;22;20023;-80
2021/09/28 14:54:12;;;;;;;16.63;3.50;;;18.10;99.90;;;;;;6260265;22;20012;-80
2021/09/28 14:56:45;;;;;;;11.50;2.50;;;18.10;99.90;;;;;;6260490;22;20018;-79
2021/09/28 14:59:16;;;;;;;8.73;2.22;;;18.10;99.90;;;;;;6293369;22;20032;-80
2021/09/28 15:01:45;;;;;;;10.05;2.00;;;18.10;99.90;;;;;;6320610;22;20015;-79
2021/09/28 15:04:13;;;;;;;22.45;4.65;;;18.20;99.90;;;;;;6292706;22;20018;-79
2021/09/28 15:06:42;;;;;;;7.47;2.88;;;18.20;99.90;;;;;;6328699;22;20019;-79
2021/09/28 15:09:11;;;;;;;22.58;3.13;;;18.30;99.90;;;;;;6295908;22;20017;-79
2021/09/28 15:11:41;;;;;;;9.80;2.60;;;18.30;99.90;;;;;;6318659;22;20696;-81
2021/09/28 15:14:11;;;;;;;14.15;2.22;;;18.30;99.90;;;;;;6318303;22;20600;-79
2021/09/28 15:16:40;;;;;;;7.15;2.55;;;18.20;99.90;;;;;;6292381;22;20021;-80
2021/09/28 15:19:09;;;;;;;7.28;2.40;;;18.20;99.90;;;;;;6331925;22;20015;-77